createdAt,value
2022-11-07T00:02:02.719Z,9.30
2022-11-07T00:04:31.480Z,9.30
2022-11-07T00:07:01.089Z,9.30
2022-11-07T00:09:29.594Z,9.30
2022-11-07T00:11:57.878Z,9.30
2022-11-07T00:14:25.817Z,9.40
2022-11-07T00:16:53.838Z,9.40
2022-11-07T00:19:22.972Z,9.40
2022-11-07T00:21:51.396Z,9.40
2022-11-07T00:24:20.649Z,9.40
2022-11-07T00:26:49.215Z,9.50
2022-11-07T00:29:18.984Z,9.50
2022-11-07T00:31:47.639Z,9.40
2022-11-07T00:34:17.644Z,9.50
2022-11-07T00:36:47.445Z,9.50
2022-11-07T00:39:15.448Z,9.50
2022-11-07T00:41:47.427Z,9.50
2022-11-07T00:44:15.503Z,9.50
2022-11-07T00:46:43.447Z,9.60
2022-11-07T00:49:11.545Z,9.60
2022-11-07T00:51:39.456Z,9.60
2022-11-07T00:54:07.440Z,9.50
2022-11-07T00:56:35.837Z,9.60
2022-11-07T00:59:05.596Z,9.60
2022-11-07T01:01:35.133Z,9.60
2022-11-07T01:04:20.710Z,9.60
2022-11-07T01:06:48.943Z,9.60
2022-11-07T01:09:18.528Z,9.60
2022-11-07T01:11:47.500Z,9.60
2022-11-07T01:14:18.296Z,9.60
2022-11-07T01:16:47.449Z,9.60
2022-11-07T01:19:15.392Z,9.60
2022-11-07T01:21:44.154Z,9.60
2022-11-07T01:24:13.570Z,9.60
2022-11-07T01:26:43.293Z,9.60
2022-11-07T01:29:11.480Z,9.60
2022-11-07T01:31:43.836Z,9.70
2022-11-07T01:34:11.825Z,9.70
2022-11-07T01:36:40.691Z,9.70
2022-11-07T01:39:08.744Z,9.70
2022-11-07T01:41:38.496Z,9.70
2022-11-07T01:44:45.304Z,9.70
2022-11-07T01:47:14.579Z,9.70
2022-11-07T01:49:44.368Z,9.70
2022-11-07T01:52:18.131Z,9.70
2022-11-07T01:54:52.332Z,9.70
2022-11-07T01:57:23.568Z,9.70
2022-11-07T01:59:53.682Z,9.70
2022-11-07T02:02:25.060Z,9.70
2022-11-07T02:04:53.569Z,9.70
2022-11-07T02:07:23.961Z,9.70
2022-11-07T02:09:53.234Z,9.70
2022-11-07T02:12:23.321Z,9.70
2022-11-07T02:14:51.649Z,9.70
2022-11-07T02:17:20.362Z,9.70
2022-11-07T02:19:51.963Z,9.70
2022-11-07T02:22:28.539Z,9.60
2022-11-07T02:25:00.852Z,9.70
2022-11-07T02:27:32.265Z,9.70
2022-11-07T02:30:03.588Z,9.70
2022-11-07T02:32:31.714Z,9.70
2022-11-07T02:35:00.779Z,9.70
2022-11-07T02:37:33.162Z,9.70
2022-11-07T02:40:06.123Z,9.70
2022-11-07T02:42:44.221Z,9.70
2022-11-07T02:45:15.364Z,9.70
2022-11-07T02:47:43.495Z,9.70
2022-11-07T02:50:13.439Z,9.70
2022-11-07T02:52:41.365Z,9.70
2022-11-07T02:55:11.669Z,9.70
2022-11-07T02:57:39.962Z,9.70
2022-11-07T03:00:11.437Z,9.70
2022-11-07T03:02:39.573Z,9.70
2022-11-07T03:05:08.187Z,9.70
2022-11-07T03:07:36.068Z,9.70
2022-11-07T03:10:04.140Z,9.70
2022-11-07T03:12:33.362Z,9.70
2022-11-07T03:15:01.316Z,9.70
2022-11-07T03:17:29.223Z,9.70
2022-11-07T03:19:57.147Z,9.70
2022-11-07T03:22:25.126Z,9.70
2022-11-07T03:24:53.129Z,9.70
2022-11-07T03:27:21.011Z,9.70
2022-11-07T03:29:50.390Z,9.70
2022-11-07T03:32:18.553Z,9.70
2022-11-07T03:34:46.439Z,9.70
2022-11-07T03:37:14.308Z,9.70
2022-11-07T03:39:42.221Z,9.60
2022-11-07T03:42:10.247Z,9.60
2022-11-07T03:44:38.127Z,9.60
2022-11-07T03:47:07.380Z,9.60
2022-11-07T03:49:35.260Z,9.60
2022-11-07T03:52:03.167Z,9.60
2022-11-07T03:54:31.085Z,9.60
2022-11-07T03:56:58.999Z,9.60
2022-11-07T03:59:26.918Z,9.50
2022-11-07T04:01:54.901Z,9.50
2022-11-07T04:04:24.352Z,9.50
2022-11-07T04:06:52.243Z,9.50
2022-11-07T04:09:20.144Z,9.50
2022-11-07T04:12:05.416Z,9.50
2022-11-07T04:14:50.710Z,9.50
2022-11-07T04:17:21.616Z,9.50
2022-11-07T04:19:52.708Z,9.50
2022-11-07T04:22:20.764Z,9.50
2022-11-07T04:24:48.710Z,9.50
2022-11-07T04:27:34.770Z,9.50
2022-11-07T04:30:18.768Z,9.50
2022-11-07T04:32:47.459Z,9.50
2022-11-07T04:35:17.510Z,9.40
2022-11-07T04:37:45.813Z,9.50
2022-11-07T04:40:14.743Z,9.50
2022-11-07T04:42:42.889Z,9.50
2022-11-07T04:45:11.851Z,9.50
2022-11-07T04:47:40.938Z,9.50
2022-11-07T04:50:11.519Z,9.50
2022-11-07T04:52:40.906Z,9.50
2022-11-07T04:55:11.356Z,9.50
2022-11-07T04:57:39.244Z,9.50
2022-11-07T05:00:08.817Z,9.60
2022-11-07T05:02:36.761Z,9.60
2022-11-07T05:05:05.434Z,9.60
2022-11-07T05:07:33.408Z,9.60
2022-11-07T05:10:02.641Z,9.60
2022-11-07T05:12:30.538Z,9.60
2022-11-07T05:14:58.431Z,9.60
2022-11-07T05:17:28.076Z,9.60
2022-11-07T05:19:56.219Z,9.70
2022-11-07T05:22:41.498Z,9.70
2022-11-07T05:25:11.139Z,9.70
2022-11-07T05:27:39.088Z,9.70
2022-11-07T05:30:08.442Z,9.70
2022-11-07T05:32:38.040Z,9.70
2022-11-07T05:35:06.919Z,9.70
2022-11-07T05:37:34.894Z,9.70
2022-11-07T05:40:02.873Z,9.70
2022-11-07T05:42:32.154Z,9.90
2022-11-07T05:45:00.287Z,9.80
2022-11-07T05:47:28.197Z,9.80
2022-11-07T05:49:56.097Z,9.80
2022-11-07T05:52:24.005Z,9.80
2022-11-07T05:54:52.136Z,9.80
2022-11-07T05:57:20.082Z,9.80
2022-11-07T05:59:49.337Z,9.80
2022-11-07T06:02:17.393Z,9.80
2022-11-07T06:04:46.119Z,9.80
2022-11-07T06:07:14.109Z,9.80
2022-11-07T06:09:42.008Z,9.80
2022-11-07T06:12:09.942Z,9.80
2022-11-07T06:14:38.007Z,9.80
2022-11-07T06:17:08.224Z,9.90
2022-11-07T06:19:36.200Z,9.90
2022-11-07T06:22:04.233Z,9.90
2022-11-07T06:24:32.403Z,9.90
2022-11-07T06:27:00.841Z,9.90
2022-11-07T06:29:28.769Z,9.90
2022-11-07T06:31:56.649Z,9.90
2022-11-07T06:34:26.092Z,9.90
2022-11-07T06:37:02.539Z,9.90
2022-11-07T06:39:31.342Z,9.80
2022-11-07T06:41:59.262Z,9.80
2022-11-07T06:44:27.184Z,9.80
2022-11-07T06:46:55.072Z,9.70
2022-11-07T06:49:23.001Z,9.70
2022-11-07T06:51:52.316Z,9.70
2022-11-07T06:54:20.292Z,9.70
2022-11-07T06:56:48.533Z,9.70
2022-11-07T06:59:16.485Z,9.80
2022-11-07T07:01:44.493Z,9.80
2022-11-07T07:04:12.526Z,9.80
2022-11-07T07:06:40.524Z,9.90
2022-11-07T07:09:09.807Z,9.90
2022-11-07T07:11:38.130Z,9.90
2022-11-07T07:14:11.257Z,9.90
2022-11-07T07:16:39.787Z,9.90
2022-11-07T07:19:07.695Z,9.90
2022-11-07T07:21:35.669Z,9.90
2022-11-07T07:24:03.553Z,9.90
2022-11-07T07:26:32.835Z,9.90
2022-11-07T07:29:00.759Z,9.90
2022-11-07T07:31:31.710Z,9.90
2022-11-07T07:34:00.775Z,9.90
2022-11-07T07:36:29.164Z,10.00
2022-11-07T07:38:57.044Z,10.00
2022-11-07T07:41:24.982Z,10.00
2022-11-07T07:43:54.213Z,10.00
2022-11-07T07:46:24.190Z,10.00
2022-11-07T07:48:52.275Z,10.10
2022-11-07T07:51:20.172Z,10.10
2022-11-07T07:53:48.082Z,10.10
2022-11-07T07:56:17.536Z,10.10
2022-11-07T07:58:46.160Z,10.20
2022-11-07T08:01:15.500Z,10.20
2022-11-07T08:04:02.043Z,10.30
2022-11-07T08:06:30.435Z,10.40
2022-11-07T08:08:58.308Z,10.50
2022-11-07T08:11:26.686Z,10.50
2022-11-07T08:13:59.819Z,10.50
2022-11-07T08:16:30.356Z,10.50
2022-11-07T08:18:58.290Z,10.60
2022-11-07T08:21:26.213Z,10.70
2022-11-07T08:23:54.851Z,10.70
2022-11-07T08:26:22.819Z,11.00
2022-11-07T08:28:50.726Z,11.10
2022-11-07T08:31:18.619Z,11.20
2022-11-07T08:33:47.896Z,11.20
2022-11-07T08:36:15.882Z,11.30
2022-11-07T08:38:43.766Z,11.20
2022-11-07T08:41:11.668Z,11.30
2022-11-07T08:43:39.632Z,11.30
2022-11-07T08:46:07.556Z,11.30
2022-11-07T08:48:35.965Z,11.20
2022-11-07T08:51:05.585Z,11.30
2022-11-07T08:53:34.183Z,11.40
2022-11-07T08:56:03.574Z,11.40
2022-11-07T08:58:32.057Z,11.30
2022-11-07T09:01:00.871Z,11.30
2022-11-07T09:03:47.521Z,11.30
2022-11-07T09:06:18.723Z,11.50
2022-11-07T09:08:46.944Z,11.40
2022-11-07T09:11:18.638Z,11.40
2022-11-07T09:13:47.716Z,11.50
2022-11-07T09:16:17.794Z,11.50
2022-11-07T09:18:46.536Z,11.60
2022-11-07T09:21:20.755Z,11.70
2022-11-07T09:23:51.767Z,11.80
2022-11-07T09:26:20.021Z,11.90
2022-11-07T09:28:51.644Z,12.00
2022-11-07T09:31:22.300Z,12.10
2022-11-07T09:33:50.234Z,12.20
2022-11-07T09:36:18.174Z,12.30
2022-11-07T09:38:46.138Z,12.30
2022-11-07T09:41:26.514Z,12.40
2022-11-07T09:44:05.092Z,12.40
2022-11-07T09:46:44.605Z,12.50
2022-11-07T09:49:19.648Z,12.50
2022-11-07T09:51:53.300Z,12.50
2022-11-07T09:54:25.066Z,12.50
2022-11-07T09:56:57.918Z,12.50
2022-11-07T09:59:30.928Z,12.40
2022-11-07T10:01:59.007Z,12.50
2022-11-07T10:04:27.516Z,12.40
2022-11-07T10:07:00.925Z,12.40
2022-11-07T10:09:39.134Z,12.40
2022-11-07T10:12:19.951Z,12.50
2022-11-07T10:14:59.197Z,12.60
2022-11-07T10:17:33.679Z,12.60
2022-11-07T10:20:15.086Z,12.70
2022-11-07T10:22:57.764Z,12.80
2022-11-07T10:25:35.112Z,12.70
2022-11-07T10:28:15.825Z,12.90
2022-11-07T10:30:45.346Z,12.90
2022-11-07T10:33:28.330Z,12.90
2022-11-07T10:36:00.016Z,13.00
2022-11-07T10:38:29.838Z,13.00
2022-11-07T10:40:58.151Z,13.10
2022-11-07T10:43:33.854Z,13.20
2022-11-07T10:46:02.947Z,13.30
2022-11-07T10:48:31.327Z,13.30
2022-11-07T10:50:59.579Z,13.40
2022-11-07T10:53:28.064Z,13.40
2022-11-07T10:55:56.909Z,13.50
2022-11-07T10:58:27.746Z,13.60
2022-11-07T11:01:04.688Z,13.60
2022-11-07T11:03:44.480Z,13.60
2022-11-07T11:06:22.596Z,13.60
2022-11-07T11:08:52.763Z,13.50
2022-11-07T11:11:30.986Z,13.50
2022-11-07T11:14:04.558Z,13.40
2022-11-07T11:16:37.377Z,13.30
2022-11-07T11:19:06.784Z,13.30
2022-11-07T11:21:43.104Z,13.20
2022-11-07T11:24:19.852Z,13.20
2022-11-07T11:26:51.220Z,13.20
2022-11-07T11:29:28.310Z,13.10
2022-11-07T11:31:59.761Z,13.10
2022-11-07T11:34:35.674Z,13.10
2022-11-07T11:37:07.576Z,13.10
2022-11-07T11:39:42.099Z,13.10
2022-11-07T11:42:20.657Z,13.00
2022-11-07T11:44:48.771Z,13.00
2022-11-07T11:47:29.086Z,13.00
2022-11-07T11:50:03.892Z,13.00
2022-11-07T11:52:32.898Z,13.00
2022-11-07T11:55:01.547Z,13.00
2022-11-07T11:57:37.447Z,13.00
2022-11-07T12:00:11.553Z,13.00
2022-11-07T12:03:07.680Z,13.00
2022-11-07T12:05:59.170Z,13.00
2022-11-07T12:08:43.712Z,13.00
2022-11-07T12:11:21.567Z,13.10
2022-11-07T12:14:00.833Z,13.20
2022-11-07T12:16:36.264Z,13.20
2022-11-07T12:19:19.430Z,13.30
2022-11-07T12:21:56.132Z,13.30
2022-11-07T12:24:36.361Z,13.40
2022-11-07T12:27:10.672Z,13.50
2022-11-07T12:29:55.593Z,13.50
2022-11-07T12:32:29.384Z,13.60
2022-11-07T12:35:12.456Z,13.70
2022-11-07T12:37:55.831Z,13.90
2022-11-07T12:40:34.895Z,13.90
2022-11-07T12:43:15.859Z,14.00
2022-11-07T12:45:53.481Z,14.00
2022-11-07T12:48:47.006Z,14.20
2022-11-07T12:51:25.921Z,14.20
2022-11-07T12:54:01.356Z,14.10
2022-11-07T12:56:33.973Z,14.10
2022-11-07T12:59:07.985Z,14.00
2022-11-07T13:01:43.105Z,13.90
2022-11-07T13:04:16.245Z,13.90
2022-11-07T13:06:52.241Z,13.70
2022-11-07T13:09:29.335Z,13.60
2022-11-07T13:12:05.185Z,13.60
2022-11-07T13:14:34.603Z,13.50
2022-11-07T13:17:15.046Z,13.40
2022-11-07T13:19:44.518Z,13.50
2022-11-07T13:22:31.804Z,13.50
2022-11-07T13:25:15.051Z,13.60
2022-11-07T13:27:46.686Z,13.70
2022-11-07T13:30:22.624Z,13.70
2022-11-07T13:32:52.367Z,13.60
2022-11-07T13:35:27.069Z,13.60
2022-11-07T13:38:03.282Z,13.50
2022-11-07T13:40:37.354Z,13.40
2022-11-07T13:43:13.223Z,13.30
2022-11-07T13:45:44.033Z,13.20
2022-11-07T13:48:19.033Z,13.20
2022-11-07T13:50:52.908Z,13.10
2022-11-07T13:53:25.727Z,13.10
2022-11-07T13:56:02.006Z,13.00
2022-11-07T13:58:32.470Z,13.00
2022-11-07T14:01:05.617Z,12.90
2022-11-07T14:03:33.961Z,13.00
2022-11-07T14:06:03.530Z,13.00
2022-11-07T14:08:35.529Z,13.00
2022-11-07T14:11:03.978Z,13.10
2022-11-07T14:13:40.666Z,13.10
2022-11-07T14:16:20.885Z,13.10
2022-11-07T14:18:51.247Z,13.10
2022-11-07T14:21:21.866Z,13.10
2022-11-07T14:23:51.141Z,13.10
2022-11-07T14:26:20.995Z,13.10
2022-11-07T14:28:49.804Z,13.10
2022-11-07T14:31:20.138Z,13.10
2022-11-07T14:33:51.669Z,13.00
2022-11-07T14:36:19.869Z,13.00
2022-11-07T14:38:49.278Z,13.00
2022-11-07T14:41:19.886Z,12.90
2022-11-07T14:43:49.218Z,12.90
2022-11-07T14:46:19.797Z,12.90
2022-11-07T14:48:49.566Z,12.90
2022-11-07T14:51:22.229Z,12.90
2022-11-07T14:53:55.923Z,12.80
2022-11-07T14:56:29.534Z,12.80
2022-11-07T14:58:57.948Z,12.80
2022-11-07T15:01:28.560Z,12.80
2022-11-07T15:03:58.875Z,12.80
2022-11-07T15:06:34.012Z,12.70
2022-11-07T15:09:03.902Z,12.70
2022-11-07T15:11:36.196Z,12.60
2022-11-07T15:14:06.684Z,12.40
2022-11-07T15:16:38.819Z,12.30
2022-11-07T15:19:10.929Z,12.30
2022-11-07T15:21:40.446Z,12.30
2022-11-07T15:24:35.088Z,12.20
2022-11-07T15:27:06.472Z,12.10
2022-11-07T15:29:36.252Z,12.00
2022-11-07T15:32:13.656Z,11.90
2022-11-07T15:35:00.870Z,11.90
2022-11-07T15:37:29.988Z,11.90
2022-11-07T15:39:58.055Z,11.80
2022-11-07T15:42:27.303Z,11.90
2022-11-07T15:44:55.351Z,11.80
2022-11-07T15:47:23.686Z,11.80
2022-11-07T15:49:51.915Z,11.80
2022-11-07T15:52:19.812Z,11.80
2022-11-07T15:54:47.830Z,11.80
2022-11-07T15:57:15.770Z,11.80
2022-11-07T15:59:45.354Z,11.80
2022-11-07T16:02:17.704Z,11.80
2022-11-07T16:04:45.813Z,11.80
2022-11-07T16:07:18.424Z,11.80
2022-11-07T16:09:48.460Z,11.70
2022-11-07T16:12:18.409Z,11.70
2022-11-07T16:14:47.810Z,11.70
2022-11-07T16:17:17.765Z,11.80
2022-11-07T16:19:46.003Z,11.80
2022-11-07T16:22:15.479Z,11.80
2022-11-07T16:24:43.412Z,11.80
2022-11-07T16:27:16.617Z,11.80
2022-11-07T16:29:44.974Z,11.80
2022-11-07T16:32:18.341Z,11.70
2022-11-07T16:34:46.739Z,11.70
2022-11-07T16:37:14.685Z,11.70
2022-11-07T16:39:42.564Z,11.70
2022-11-07T16:42:14.742Z,11.80
2022-11-07T16:44:43.028Z,11.70
2022-11-07T16:47:16.179Z,11.70
2022-11-07T16:49:44.671Z,11.70
2022-11-07T16:52:14.764Z,11.60
2022-11-07T16:54:42.842Z,11.70
2022-11-07T16:57:12.804Z,11.70
2022-11-07T16:59:41.236Z,11.70
2022-11-07T17:02:21.155Z,11.70
2022-11-07T17:04:50.885Z,11.60
2022-11-07T17:07:20.120Z,11.60
2022-11-07T17:09:48.670Z,11.60
2022-11-07T17:12:18.439Z,11.60
2022-11-07T17:14:46.626Z,11.50
2022-11-07T17:17:15.436Z,11.50
2022-11-07T17:19:44.952Z,11.50
2022-11-07T17:22:13.892Z,11.40
2022-11-07T17:24:43.431Z,11.40
2022-11-07T17:27:22.725Z,11.40
2022-11-07T17:29:51.332Z,11.30
2022-11-07T17:32:19.737Z,11.40
2022-11-07T17:35:04.710Z,11.40
2022-11-07T17:37:37.439Z,11.40
2022-11-07T17:40:06.685Z,11.50
2022-11-07T17:42:38.036Z,11.50
2022-11-07T17:45:07.507Z,11.50
2022-11-07T17:47:35.640Z,11.50
2022-11-07T17:50:05.753Z,11.50
2022-11-07T17:52:34.049Z,11.50
2022-11-07T17:55:01.991Z,11.40
2022-11-07T17:57:29.901Z,11.30
2022-11-07T17:59:57.798Z,11.20
2022-11-07T18:02:25.853Z,11.10
2022-11-07T18:04:53.866Z,11.00
2022-11-07T18:07:23.145Z,10.90
2022-11-07T18:09:52.908Z,10.80
2022-11-07T18:12:20.830Z,10.70
2022-11-07T18:14:48.729Z,10.70
2022-11-07T18:17:16.679Z,10.60
2022-11-07T18:19:44.587Z,10.50
2022-11-07T18:22:12.468Z,10.50
2022-11-07T18:24:41.699Z,10.50
2022-11-07T18:27:10.799Z,10.60
2022-11-07T18:29:40.321Z,10.60
2022-11-07T18:32:08.232Z,10.70
2022-11-07T18:34:36.123Z,10.70
2022-11-07T18:37:04.067Z,10.80
2022-11-07T18:39:32.812Z,10.80
2022-11-07T18:42:02.059Z,10.80
2022-11-07T18:44:30.000Z,10.90
2022-11-07T18:46:58.121Z,10.90
2022-11-07T18:49:26.047Z,10.90
2022-11-07T18:51:53.986Z,10.90
2022-11-07T18:54:23.261Z,10.80
2022-11-07T18:56:51.196Z,10.80
2022-11-07T18:59:20.635Z,10.80
2022-11-07T19:01:48.775Z,10.70
2022-11-07T19:04:16.757Z,10.70
2022-11-07T19:06:56.901Z,10.70
2022-11-07T19:09:27.130Z,10.80
2022-11-07T19:11:55.130Z,10.80
2022-11-07T19:14:24.429Z,10.90
2022-11-07T19:16:52.473Z,10.90
2022-11-07T19:19:20.408Z,10.90
2022-11-07T19:21:48.359Z,10.80
2022-11-07T19:24:16.349Z,10.70
2022-11-07T19:26:45.327Z,10.70
2022-11-07T19:29:13.234Z,10.60
2022-11-07T19:31:42.489Z,10.60
2022-11-07T19:34:10.563Z,10.50
2022-11-07T19:36:38.813Z,10.50
2022-11-07T19:39:06.761Z,10.50
2022-11-07T19:41:34.677Z,10.50
2022-11-07T19:44:04.331Z,10.60
2022-11-07T19:46:32.795Z,10.60
2022-11-07T19:49:02.230Z,10.70
2022-11-07T19:51:30.487Z,10.70
2022-11-07T19:53:59.845Z,10.80
2022-11-07T19:56:29.617Z,10.80
2022-11-07T19:58:58.153Z,10.80
2022-11-07T20:01:28.924Z,10.80
2022-11-07T20:03:57.998Z,10.80
2022-11-07T20:06:30.782Z,10.80
2022-11-07T20:08:59.233Z,10.80
2022-11-07T20:11:27.892Z,10.70
2022-11-07T20:14:01.749Z,10.70
2022-11-07T20:16:31.708Z,10.70
2022-11-07T20:18:59.772Z,10.70
2022-11-07T20:21:30.193Z,10.60
2022-11-07T20:23:59.504Z,10.60
2022-11-07T20:26:30.896Z,10.50
2022-11-07T20:28:59.913Z,10.40
2022-11-07T20:31:30.327Z,10.40
2022-11-07T20:33:59.396Z,10.30
2022-11-07T20:36:31.047Z,10.20
2022-11-07T20:38:59.838Z,10.20
2022-11-07T20:41:28.387Z,10.10
2022-11-07T20:43:56.808Z,10.10
2022-11-07T20:46:24.800Z,10.20
2022-11-07T20:48:53.993Z,10.20
2022-11-07T20:51:25.127Z,10.20
2022-11-07T20:53:54.837Z,10.30
2022-11-07T20:56:24.186Z,10.30
2022-11-07T20:58:52.570Z,10.30
2022-11-07T21:01:23.757Z,10.30
2022-11-07T21:03:53.424Z,10.40
2022-11-07T21:06:21.486Z,10.40
2022-11-07T21:08:50.402Z,10.50
2022-11-07T21:11:19.644Z,10.60
2022-11-07T21:13:52.615Z,10.60
2022-11-07T21:16:21.779Z,10.70
2022-11-07T21:18:49.883Z,10.70
2022-11-07T21:21:20.553Z,10.70
2022-11-07T21:23:49.246Z,10.80
2022-11-07T21:26:20.216Z,10.80
2022-11-07T21:28:48.369Z,10.90
2022-11-07T21:31:19.738Z,10.90
2022-11-07T21:33:47.736Z,10.90
2022-11-07T21:36:17.695Z,10.90
2022-11-07T21:38:46.670Z,11.00
2022-11-07T21:41:15.822Z,11.00
2022-11-07T21:43:45.360Z,10.90
2022-11-07T21:46:15.681Z,10.90
2022-11-07T21:48:45.614Z,10.90
2022-11-07T21:51:15.713Z,10.90
2022-11-07T21:53:44.064Z,10.70
2022-11-07T21:56:16.596Z,10.60
2022-11-07T21:58:46.081Z,10.50
2022-11-07T22:01:14.036Z,10.50
2022-11-07T22:04:05.421Z,10.40
2022-11-07T22:06:30.305Z,10.30
2022-11-07T22:08:58.213Z,10.20
2022-11-07T22:11:26.099Z,10.10
2022-11-07T22:13:55.704Z,10.10
2022-11-07T22:16:24.206Z,10.10
2022-11-07T22:18:52.188Z,10.00
2022-11-07T22:21:22.649Z,9.90
2022-11-07T22:23:51.198Z,9.90
2022-11-07T22:26:20.730Z,9.80
2022-11-07T22:28:49.128Z,9.80
2022-11-07T22:31:20.420Z,9.70
2022-11-07T22:33:48.555Z,9.60
2022-11-07T22:36:17.000Z,9.60
2022-11-07T22:38:44.934Z,9.50
2022-11-07T22:41:16.319Z,9.50
2022-11-07T22:43:45.092Z,9.50
2022-11-07T22:46:14.365Z,9.50
2022-11-07T22:48:44.267Z,9.50
2022-11-07T22:51:14.089Z,9.40
2022-11-07T22:53:42.452Z,9.40
2022-11-07T22:56:11.294Z,9.40
2022-11-07T22:58:39.884Z,9.30
2022-11-07T23:01:13.718Z,9.30
2022-11-07T23:03:42.990Z,9.30
2022-11-07T23:06:10.899Z,9.40
2022-11-07T23:08:39.264Z,9.30
2022-11-07T23:14:00.378Z,9.30
2022-11-07T23:16:32.724Z,9.20
2022-11-07T23:19:04.132Z,9.20
2022-11-07T23:21:32.434Z,9.20
2022-11-07T23:24:01.161Z,9.10
2022-11-07T23:26:33.446Z,9.10
2022-11-07T23:29:07.275Z,9.00
2022-11-07T23:31:38.340Z,9.10
2022-11-07T23:34:08.189Z,9.00
2022-11-07T23:36:36.701Z,9.00
2022-11-07T23:39:06.400Z,9.00
2022-11-07T23:41:34.935Z,9.00
2022-11-07T23:44:03.123Z,8.90
2022-11-07T23:46:48.811Z,8.90
2022-11-07T23:49:35.957Z,8.80
2022-11-07T23:52:04.036Z,8.80
2022-11-07T23:54:49.262Z,8.80
2022-11-07T23:57:18.221Z,8.70
